Time;durP1;ratioP1;P1;durP2;ratioP2;P2;SDS_P1;SDS_P2;PMS_P1;PMS_P2;Temp;Humidity;BMP_temperature;BMP_pressure;BME280_temperature;BME280_humidity;BME280_pressure;Samples;Min_cycle;Max_cycle;Signal;HPM_P1;HPM_P2
2023/03/25 00:01:00;;;;;;;1999.90;999.90;;;11.80;99.90;;;;;;5052364;28;20021;-73
2023/03/25 00:03:28;;;;;;;1999.90;999.90;;;11.80;99.90;;;;;;5052357;28;20075;-71
2023/03/25 00:05:55;;;;;;;1999.90;999.90;;;11.90;99.90;;;;;;5052349;28;20036;-70
2023/03/25 00:08:21;;;;;;;1999.90;999.90;;;11.90;99.90;;;;;;5052530;28;20096;-71
2023/03/25 00:10:58;;;;;;;1999.90;999.90;;;11.80;99.90;;;;;;5041002;28;20028;-77
2023/03/25 00:13:24;;;;;;;1999.90;999.90;;;11.90;99.90;;;;;;5049917;28;20116;-72
2023/03/25 00:15:52;;;;;;;1999.90;999.90;;;11.90;99.90;;;;;;5036116;28;20017;-71
2023/03/25 00:18:20;;;;;;;1999.90;999.90;;;11.90;99.90;;;;;;5054735;28;20480;-71
2023/03/25 00:20:49;;;;;;;1999.90;999.90;;;11.80;99.90;;;;;;5056243;28;20017;-77
2023/03/25 00:23:15;;;;;;;1999.90;999.90;;;11.90;99.90;;;;;;5055878;28;20033;-77
2023/03/25 00:25:43;;;;;;;1999.90;999.90;;;11.90;99.90;;;;;;5055115;28;20456;-73
2023/03/25 00:28:10;;;;;;;1999.90;999.90;;;11.90;99.90;;;;;;5055994;28;20021;-77
2023/03/25 00:30:37;;;;;;;1999.90;999.90;;;11.90;99.90;;;;;;5054774;28;20111;-78
2023/03/25 00:33:03;;;;;;;1999.90;999.90;;;11.90;99.90;;;;;;5055773;28;20468;-77
2023/03/25 00:35:29;;;;;;;1999.90;999.90;;;11.90;99.90;;;;;;5055835;28;20051;-78
2023/03/25 00:37:58;;;;;;;1999.90;999.90;;;11.90;99.90;;;;;;5055648;28;20111;-71
2023/03/25 00:40:33;;;;;;;1999.90;999.90;;;11.90;99.90;;;;;;5055714;28;20020;-78
2023/03/25 00:43:00;;;;;;;1999.90;999.90;;;11.90;99.90;;;;;;5035762;28;20030;-71
2023/03/25 00:45:26;;;;;;;1999.90;999.90;;;11.90;99.90;;;;;;5037171;28;20029;-76
2023/03/25 00:47:52;;;;;;;1999.90;999.90;;;11.90;99.90;;;;;;5055513;28;20049;-71
2023/03/25 00:50:17;;;;;;;1999.90;999.90;;;11.90;99.90;;;;;;5055299;28;20037;-78
2023/03/25 00:52:43;;;;;;;1999.90;999.90;;;12.00;99.90;;;;;;5055201;28;20509;-78
2023/03/25 00:55:09;;;;;;;1999.90;999.90;;;12.00;99.90;;;;;;5054299;28;20487;-78
2023/03/25 00:57:35;;;;;;;1999.90;999.90;;;12.10;99.90;;;;;;5055602;28;20541;-77
2023/03/25 01:00:05;;;;;;;1999.90;999.90;;;12.10;99.90;;;;;;5055018;28;20029;-77
2023/03/25 01:02:32;;;;;;;1999.90;999.90;;;12.10;99.90;;;;;;5054759;28;20025;-77
2023/03/25 01:04:58;;;;;;;1999.90;999.90;;;12.10;99.90;;;;;;5055412;28;20052;-72
2023/03/25 01:07:24;;;;;;;1999.90;999.90;;;12.10;99.90;;;;;;5055049;28;20522;-70
2023/03/25 01:09:50;;;;;;;1999.90;999.90;;;12.10;99.90;;;;;;5051665;28;20057;-76
2023/03/25 01:12:17;;;;;;;1999.90;999.90;;;12.10;99.90;;;;;;5035264;28;20060;-77
2023/03/25 01:14:43;;;;;;;1999.90;999.90;;;12.10;99.90;;;;;;5050418;28;20472;-77
2023/03/25 01:17:10;;;;;;;1999.90;999.90;;;12.10;99.90;;;;;;5034819;28;20052;-77
2023/03/25 01:19:36;;;;;;;1999.90;999.90;;;12.10;99.90;;;;;;5050400;28;20049;-77
2023/03/25 01:22:01;;;;;;;1999.90;999.90;;;12.10;99.90;;;;;;5034852;28;20060;-71
2023/03/25 01:24:27;;;;;;;1999.90;999.90;;;12.10;99.90;;;;;;5033853;28;20486;-71
2023/03/25 01:26:53;;;;;;;1999.90;999.90;;;12.10;99.90;;;;;;5034127;28;20129;-77
2023/03/25 01:29:20;;;;;;;1999.90;999.90;;;12.10;99.90;;;;;;5051212;28;20116;-77
2023/03/25 01:31:46;;;;;;;1999.90;999.90;;;12.10;99.90;;;;;;5054320;28;20025;-71
2023/03/25 01:34:13;;;;;;;1999.90;999.90;;;12.10;99.90;;;;;;5054675;28;20086;-72
2023/03/25 01:36:39;;;;;;;1999.90;999.90;;;12.10;99.90;;;;;;5054557;28;20100;-71
2023/03/25 01:39:06;;;;;;;1999.90;999.90;;;12.10;99.90;;;;;;5054655;28;20454;-77
2023/03/25 01:41:33;;;;;;;1999.90;999.90;;;12.10;99.90;;;;;;5054510;28;20392;-78
2023/03/25 01:44:19;;;;;;;1999.90;999.90;;;12.10;99.90;;;;;;5054492;28;20025;-71
2023/03/25 01:46:48;;;;;;;1999.90;999.90;;;12.00;99.90;;;;;;5045482;28;20048;-71
2023/03/25 01:49:25;;;;;;;1999.90;999.90;;;12.00;99.90;;;;;;5054331;28;20061;-76
2023/03/25 01:51:56;;;;;;;1999.90;999.90;;;12.00;99.90;;;;;;5054288;28;20476;-77
2023/03/25 01:54:22;;;;;;;1999.90;999.90;;;12.00;99.90;;;;;;5054303;28;20017;-71
2023/03/25 01:56:49;;;;;;;1999.90;999.90;;;12.00;99.90;;;;;;5053149;28;20507;-71
2023/03/25 01:59:17;;;;;;;1999.90;999.90;;;12.00;99.90;;;;;;5054619;28;20079;-76
2023/03/25 02:01:47;;;;;;;1999.90;999.90;;;12.00;99.90;;;;;;5054489;28;20021;-76
2023/03/25 02:04:15;;;;;;;1999.90;999.90;;;12.00;99.90;;;;;;5054091;28;20033;-77
2023/03/25 02:06:52;;;;;;;1999.90;999.90;;;12.00;99.90;;;;;;5054040;28;20029;-70
2023/03/25 02:09:21;;;;;;;1999.90;999.90;;;12.00;99.90;;;;;;5053960;28;20106;-77
2023/03/25 02:11:47;;;;;;;1999.90;999.90;;;12.00;99.90;;;;;;5033966;28;20064;-70
2023/03/25 02:14:21;;;;;;;1999.90;999.90;;;12.00;99.90;;;;;;5034470;28;20469;-70
2023/03/25 02:17:16;;;;;;;1999.90;999.90;;;12.00;99.90;;;;;;5039988;28;20021;-77
2023/03/25 02:20:07;;;;;;;1999.90;999.90;;;12.00;99.90;;;;;;5053764;28;20036;-71
2023/03/25 02:22:57;;;;;;;1999.90;999.90;;;12.00;99.90;;;;;;5054005;28;20025;-78
2023/03/25 02:25:44;;;;;;;1999.90;999.90;;;12.00;99.90;;;;;;5053944;28;20021;-77
2023/03/25 02:28:16;;;;;;;1999.90;999.90;;;11.90;99.90;;;;;;5052993;28;20070;-74
2023/03/25 02:30:45;;;;;;;1999.90;999.90;;;11.80;99.90;;;;;;5053331;28;20108;-76
2023/03/25 02:33:32;;;;;;;1999.90;999.90;;;11.70;99.90;;;;;;5053515;28;20594;-76
2023/03/25 02:36:19;;;;;;;1999.90;999.90;;;11.60;99.90;;;;;;5053260;28;20548;-71
2023/03/25 02:38:51;;;;;;;1999.90;999.90;;;11.60;99.90;;;;;;5053116;28;20094;-71
2023/03/25 02:41:34;;;;;;;1999.90;999.90;;;11.50;99.90;;;;;;5053236;28;20490;-76
2023/03/25 02:44:09;;;;;;;1999.90;999.90;;;11.50;99.90;;;;;;5053700;28;20017;-76
2023/03/25 02:46:37;;;;;;;1999.90;999.90;;;11.50;99.90;;;;;;5053487;28;20094;-71
2023/03/25 02:49:12;;;;;;;1999.90;999.90;;;11.40;99.90;;;;;;5052932;28;20519;-75
2023/03/25 02:51:48;;;;;;;1999.90;999.90;;;11.40;99.90;;;;;;5053063;28;20391;-70
2023/03/25 02:54:16;;;;;;;1999.90;999.90;;;11.40;99.90;;;;;;5053413;28;20014;-76
2023/03/25 02:56:46;;;;;;;1999.90;999.90;;;11.40;99.90;;;;;;5053398;28;20025;-75
2023/03/25 02:59:13;;;;;;;1999.90;999.90;;;11.40;99.90;;;;;;5053187;28;20104;-77
2023/03/25 03:01:39;;;;;;;1999.90;999.90;;;11.40;99.90;;;;;;5052925;28;20052;-71
2023/03/25 03:04:05;;;;;;;1999.90;999.90;;;11.50;99.90;;;;;;5053007;28;20021;-70
2023/03/25 03:06:37;;;;;;;1999.90;999.90;;;11.50;99.90;;;;;;5052976;28;20029;-75
2023/03/25 03:09:26;;;;;;;1999.90;999.90;;;11.40;99.90;;;;;;5052929;28;20074;-76
2023/03/25 03:12:22;;;;;;;1999.90;999.90;;;11.40;99.90;;;;;;5032892;28;20052;-77
2023/03/25 03:15:13;;;;;;;1999.90;999.90;;;11.40;99.90;;;;;;5033028;28;20100;-71
2023/03/25 03:17:49;;;;;;;1999.90;999.90;;;11.40;99.90;;;;;;5046233;28;20357;-71
2023/03/25 03:20:33;;;;;;;1999.90;999.90;;;11.50;99.90;;;;;;5052825;28;20025;-77
2023/03/25 03:23:23;;;;;;;1999.90;999.90;;;11.50;99.90;;;;;;5052825;28;20052;-77
2023/03/25 03:25:59;;;;;;;1999.90;999.90;;;11.60;99.90;;;;;;5052921;28;20396;-76
2023/03/25 03:28:36;;;;;;;1999.90;999.90;;;11.70;99.90;;;;;;5052106;28;20051;-71
2023/03/25 03:31:10;;;;;;;1999.90;999.90;;;11.70;99.90;;;;;;5052459;28;20024;-70
2023/03/25 03:33:49;;;;;;;1999.90;999.90;;;11.70;99.90;;;;;;5052799;28;20037;-76
2023/03/25 03:36:19;;;;;;;1999.90;999.90;;;11.70;99.90;;;;;;5052795;28;20056;-77
2023/03/25 03:39:04;;;;;;;1999.90;999.90;;;11.70;99.90;;;;;;5052693;28;20044;-77
2023/03/25 03:41:34;;;;;;;1999.90;999.90;;;11.60;99.90;;;;;;5052561;28;20488;-78
2023/03/25 03:44:05;;;;;;;1999.90;999.90;;;11.50;99.90;;;;;;5052656;28;20021;-70
2023/03/25 03:46:40;;;;;;;1999.90;999.90;;;11.50;99.90;;;;;;5051348;28;20406;-77
2023/03/25 03:49:11;;;;;;;1999.90;999.90;;;11.50;99.90;;;;;;5056046;28;20057;-77
2023/03/25 03:51:41;;;;;;;1999.90;999.90;;;11.50;99.90;;;;;;5056381;28;20029;-77
2023/03/25 03:54:19;;;;;;;1999.90;999.90;;;11.50;99.90;;;;;;5056330;28;20494;-70
2023/03/25 03:57:14;;;;;;;1999.90;999.90;;;11.50;99.90;;;;;;5056627;28;20137;-70
2023/03/25 03:59:56;;;;;;;1999.90;999.90;;;11.50;99.90;;;;;;5055107;28;20028;-77
2023/03/25 04:02:37;;;;;;;1999.90;999.90;;;11.50;99.90;;;;;;5056724;28;20437;-78
2023/03/25 04:05:07;;;;;;;1999.90;999.90;;;11.40;99.90;;;;;;5056429;28;20028;-77
2023/03/25 04:07:40;;;;;;;1999.90;999.90;;;11.40;99.90;;;;;;5056071;28;20025;-71
2023/03/25 04:10:38;;;;;;;1999.90;999.90;;;11.50;99.90;;;;;;5050225;28;20092;-71
2023/03/25 04:13:09;;;;;;;1999.90;999.90;;;11.40;99.90;;;;;;5036584;28;20120;-77
2023/03/25 04:15:36;;;;;;;1999.90;999.90;;;11.40;99.90;;;;;;5036212;28;20018;-77
2023/03/25 04:18:02;;;;;;;1999.90;999.90;;;11.40;99.90;;;;;;5052058;28;20116;-78
2023/03/25 04:20:35;;;;;;;1999.90;999.90;;;11.30;99.90;;;;;;5055928;28;20070;-77
2023/03/25 04:23:03;;;;;;;1999.90;999.90;;;11.30;99.90;;;;;;5056348;28;20151;-70
2023/03/25 04:25:31;;;;;;;1999.90;999.90;;;11.40;99.90;;;;;;5055999;28;20400;-78
2023/03/25 04:27:58;;;;;;;1999.90;999.90;;;11.30;99.90;;;;;;5056004;28;20029;-77
2023/03/25 04:30:26;;;;;;;1999.90;999.90;;;11.30;99.90;;;;;;5055355;28;20029;-78
2023/03/25 04:32:52;;;;;;;1999.90;999.90;;;11.30;99.90;;;;;;5055388;28;20110;-70
2023/03/25 04:35:18;;;;;;;1999.90;999.90;;;11.30;99.90;;;;;;5055898;28;20053;-71
2023/03/25 04:37:47;;;;;;;1999.90;999.90;;;11.30;99.90;;;;;;5055916;28;20484;-70
2023/03/25 04:40:17;;;;;;;1999.90;999.90;;;11.30;99.90;;;;;;5055904;28;20032;-78
2023/03/25 04:42:45;;;;;;;1999.90;999.90;;;11.30;99.90;;;;;;5055848;28;20086;-78
2023/03/25 04:45:13;;;;;;;1999.90;999.90;;;11.30;99.90;;;;;;5055734;28;20109;-78
2023/03/25 04:47:45;;;;;;;1999.90;999.90;;;11.30;99.90;;;;;;5055480;28;20507;-70
2023/03/25 04:50:26;;;;;;;1999.90;999.90;;;11.40;99.90;;;;;;5055358;28;20507;-70
2023/03/25 04:52:52;;;;;;;1999.90;999.90;;;11.40;99.90;;;;;;5055427;28;20029;-78
2023/03/25 04:55:19;;;;;;;1999.90;999.90;;;11.40;99.90;;;;;;5055597;28;20501;-78
2023/03/25 04:57:47;;;;;;;1999.90;999.90;;;11.30;99.90;;;;;;5055213;28;20052;-78
2023/03/25 05:00:14;;;;;;;1999.90;999.90;;;11.30;99.90;;;;;;5055299;28;20029;-77
2023/03/25 05:02:45;;;;;;;1999.90;999.90;;;11.30;99.90;;;;;;5055473;28;20159;-70
2023/03/25 05:05:17;;;;;;;1999.90;999.90;;;11.30;99.90;;;;;;5055162;28;20036;-70
2023/03/25 05:07:52;;;;;;;1999.90;999.90;;;11.40;99.90;;;;;;5055336;28;20021;-77
2023/03/25 05:10:23;;;;;;;1999.90;999.90;;;11.40;99.90;;;;;;5050175;28;20026;-77
2023/03/25 05:12:56;;;;;;;1999.90;999.90;;;11.40;99.90;;;;;;5035333;28;20108;-71
2023/03/25 05:15:21;;;;;;;1999.90;999.90;;;11.40;99.90;;;;;;5034496;28;20469;-71
2023/03/25 05:17:47;;;;;;;1999.90;999.90;;;11.40;99.90;;;;;;5049427;28;20071;-77
2023/03/25 05:20:13;;;;;;;1999.90;999.90;;;11.40;99.90;;;;;;5054973;28;20428;-77
2023/03/25 05:22:40;;;;;;;1999.90;999.90;;;11.40;99.90;;;;;;5054871;28;20021;-70
2023/03/25 05:25:07;;;;;;;1999.90;999.90;;;11.40;99.90;;;;;;5054772;28;20029;-77
2023/03/25 05:27:34;;;;;;;1999.90;999.90;;;11.40;99.90;;;;;;5054895;28;20411;-76
2023/03/25 05:29:59;;;;;;;1999.90;999.90;;;11.40;99.90;;;;;;5054366;28;20025;-77
2023/03/25 05:32:28;;;;;;;1999.90;999.90;;;11.40;99.90;;;;;;5054287;28;20021;-77
2023/03/25 05:34:55;;;;;;;1999.90;999.90;;;11.40;99.90;;;;;;5054766;28;20039;-76
2023/03/25 05:37:21;;;;;;;1999.90;999.90;;;11.40;99.90;;;;;;5054700;28;20020;-77
2023/03/25 05:39:47;;;;;;;1999.90;999.90;;;11.40;99.90;;;;;;5054584;28;20028;-70
2023/03/25 05:42:13;;;;;;;1999.90;999.90;;;11.40;99.90;;;;;;5054299;28;20021;-70
2023/03/25 05:44:49;;;;;;;1999.90;999.90;;;11.40;99.90;;;;;;5054585;28;20119;-77
2023/03/25 05:47:16;;;;;;;1999.90;999.90;;;11.40;99.90;;;;;;5054337;28;20035;-70
2023/03/25 05:49:42;;;;;;;1999.90;999.90;;;11.30;99.90;;;;;;5054338;28;20044;-77
2023/03/25 05:52:08;;;;;;;1999.90;999.90;;;11.30;99.90;;;;;;5054352;28;20400;-70
2023/03/25 05:54:37;;;;;;;1999.90;999.90;;;11.30;99.90;;;;;;5054379;28;20523;-70
2023/03/25 05:57:04;;;;;;;1999.90;999.90;;;11.30;99.90;;;;;;5054359;28;20021;-77
2023/03/25 05:59:30;;;;;;;1999.90;999.90;;;11.30;99.90;;;;;;5054419;28;20024;-77
2023/03/25 06:01:56;;;;;;;1999.90;999.90;;;11.40;99.90;;;;;;5054007;28;20188;-70
2023/03/25 06:04:22;;;;;;;1999.90;999.90;;;11.30;99.90;;;;;;5054240;28;20123;-71
2023/03/25 06:06:48;;;;;;;1999.90;999.90;;;11.30;99.90;;;;;;5054101;28;20028;-70
2023/03/25 06:09:14;;;;;;;1999.90;999.90;;;11.30;99.90;;;;;;5054068;28;20104;-78
2023/03/25 06:11:39;;;;;;;1999.90;999.90;;;11.30;99.90;;;;;;5034665;28;20056;-77
2023/03/25 06:14:06;;;;;;;1999.90;999.90;;;11.30;99.90;;;;;;5034107;28;20091;-77
2023/03/25 06:16:32;;;;;;;1999.90;999.90;;;11.30;99.90;;;;;;5036903;28;20021;-78
2023/03/25 06:18:59;;;;;;;1999.90;999.90;;;11.30;99.90;;;;;;5053758;28;20025;-70
2023/03/25 06:21:31;;;;;;;1999.90;999.90;;;11.30;99.90;;;;;;5053756;28;20104;-78
2023/03/25 06:23:59;;;;;;;1999.90;999.90;;;11.30;99.90;;;;;;5053727;28;20024;-77
2023/03/25 06:26:25;;;;;;;1999.90;999.90;;;11.30;99.90;;;;;;5053809;28;20444;-77
2023/03/25 06:28:51;;;;;;;1999.90;999.90;;;11.30;99.90;;;;;;5053446;28;20125;-77
2023/03/25 06:31:19;;;;;;;1999.90;999.90;;;11.30;99.90;;;;;;5052926;28;20088;-70
2023/03/25 06:33:46;;;;;;;1999.90;999.90;;;11.30;99.90;;;;;;5053607;28;20021;-78
2023/03/25 06:36:17;;;;;;;1999.90;999.90;;;11.40;99.90;;;;;;5053347;28;20025;-78
2023/03/25 06:38:47;;;;;;;1999.90;999.90;;;11.40;99.90;;;;;;5053652;28;20021;-78
2023/03/25 06:41:13;;;;;;;1999.90;999.90;;;11.40;99.90;;;;;;5053176;28;20531;-78
2023/03/25 06:43:40;;;;;;;1999.90;999.90;;;11.30;99.90;;;;;;5053534;28;20021;-78
2023/03/25 06:46:06;;;;;;;1999.90;999.90;;;11.30;99.90;;;;;;5053187;28;20040;-70
2023/03/25 06:48:32;;;;;;;1999.90;999.90;;;11.40;99.90;;;;;;5053194;28;20056;-78
2023/03/25 06:50:58;;;;;;;1999.90;999.90;;;11.50;99.90;;;;;;5053169;28;20403;-78
2023/03/25 06:53:23;;;;;;;1999.90;999.90;;;11.60;99.90;;;;;;5053374;28;20056;-77
2023/03/25 06:55:49;;;;;;;1999.90;999.90;;;11.60;99.90;;;;;;5053283;28;20369;-71
2023/03/25 06:58:15;;;;;;;1999.90;999.90;;;11.60;99.90;;;;;;5053192;28;20050;-70
2023/03/25 07:00:45;;;;;;;1999.90;999.90;;;11.70;99.90;;;;;;5051969;28;20403;-70
2023/03/25 07:03:11;;;;;;;1999.90;999.90;;;11.70;99.90;;;;;;5052995;28;20024;-77
2023/03/25 07:05:36;;;;;;;1999.90;999.90;;;11.70;99.90;;;;;;5053001;28;20028;-77
2023/03/25 07:08:02;;;;;;;1999.90;999.90;;;11.80;99.90;;;;;;5052886;28;20069;-77
2023/03/25 07:10:29;;;;;;;1999.90;999.90;;;11.80;99.90;;;;;;5044216;28;20036;-70
2023/03/25 07:12:55;;;;;;;1999.90;999.90;;;11.80;99.90;;;;;;5032961;28;20037;-71
2023/03/25 07:15:20;;;;;;;1999.90;999.90;;;11.90;99.90;;;;;;5032979;28;20475;-78
2023/03/25 07:17:48;;;;;;;1999.90;999.90;;;11.90;99.90;;;;;;5032355;28;20026;-78
2023/03/25 07:20:14;;;;;;;1999.90;999.90;;;12.00;99.90;;;;;;5033122;28;20029;-78
2023/03/25 07:22:40;;;;;;;1999.90;999.90;;;12.20;99.90;;;;;;5031987;28;20025;-71
2023/03/25 07:25:05;;;;;;;1999.90;999.90;;;12.40;99.90;;;;;;5033103;28;20037;-71
2023/03/25 07:27:31;;;;;;;1999.90;999.90;;;12.30;99.90;;;;;;5032716;28;20485;-78
2023/03/25 07:29:57;;;;;;;1999.90;999.90;;;12.40;99.90;;;;;;5032355;28;20030;-77
2023/03/25 07:32:22;;;;;;;1999.90;999.90;;;12.40;99.90;;;;;;5046651;28;20025;-78
2023/03/25 07:34:48;;;;;;;1999.90;999.90;;;12.40;99.90;;;;;;5052584;28;20079;-74
2023/03/25 07:37:14;;;;;;;1999.90;999.90;;;12.40;99.90;;;;;;5052390;28;20033;-71
2023/03/25 07:39:40;;;;;;;1999.90;999.90;;;12.30;99.90;;;;;;5052549;28;20087;-77
2023/03/25 07:42:06;;;;;;;1999.90;999.90;;;12.40;99.90;;;;;;5052625;28;20025;-78
2023/03/25 07:44:31;;;;;;;1999.90;999.90;;;12.40;99.90;;;;;;5052717;28;20523;-78
2023/03/25 07:46:57;;;;;;;1999.90;999.90;;;12.50;99.90;;;;;;5052589;28;20021;-78
2023/03/25 07:49:23;;;;;;;1999.90;999.90;;;12.40;99.90;;;;;;5052200;28;20076;-71
2023/03/25 07:51:48;;;;;;;1999.90;999.90;;;12.40;99.90;;;;;;5052361;28;20029;-71
2023/03/25 07:54:14;;;;;;;1999.90;999.90;;;12.40;99.90;;;;;;5052866;28;20610;-78
2023/03/25 07:56:40;;;;;;;1999.90;999.90;;;12.30;99.90;;;;;;5052731;28;20049;-77
2023/03/25 07:59:05;;;;;;;1999.90;999.90;;;12.30;99.90;;;;;;5051409;28;20044;-78
2023/03/25 08:01:31;;;;;;;1999.90;999.90;;;12.40;99.90;;;;;;5052634;28;20053;-78
2023/03/25 08:03:56;;;;;;;1999.90;999.90;;;12.30;99.90;;;;;;5052126;28;20021;-71
2023/03/25 08:06:22;;;;;;;1999.90;999.90;;;12.30;99.90;;;;;;5052480;28;20025;-78
2023/03/25 08:08:48;;;;;;;1999.90;999.90;;;12.30;99.90;;;;;;5052368;28;20502;-78
2023/03/25 08:11:14;;;;;;;1999.90;999.90;;;12.50;99.90;;;;;;5047564;28;20021;-78
2023/03/25 08:13:40;;;;;;;1999.90;999.90;;;12.70;99.90;;;;;;5032305;28;20052;-78
2023/03/25 08:16:13;;;;;;;1999.90;999.90;;;12.90;99.90;;;;;;5032731;28;20025;-71
2023/03/25 08:18:39;;;;;;;1999.90;999.90;;;13.20;99.90;;;;;;5051587;28;20017;-71
2023/03/25 08:21:05;;;;;;;1999.90;999.90;;;14.80;99.90;;;;;;5052404;28;20026;-79
2023/03/25 08:23:30;;;;;;;1999.90;999.90;;;15.30;99.90;;;;;;5052036;28;20044;-78
2023/03/25 08:25:56;;;;;;;1999.90;999.90;;;14.70;99.90;;;;;;5052202;28;20392;-78
2023/03/25 08:28:22;;;;;;;1999.90;999.90;;;15.80;99.90;;;;;;5052046;28;20029;-79
2023/03/25 08:30:54;;;;;;;1999.90;999.90;;;15.20;99.90;;;;;;5051051;28;20028;-71
2023/03/25 08:33:25;;;;;;;1999.90;999.90;;;14.50;99.90;;;;;;5051450;28;20112;-79
2023/03/25 08:35:51;;;;;;;1999.90;999.90;;;14.10;99.90;;;;;;5054667;28;20029;-78
2023/03/25 08:38:17;;;;;;;1999.90;999.90;;;14.10;99.90;;;;;;5055927;28;20036;-78
2023/03/25 08:40:43;;;;;;;1999.90;999.90;;;14.10;99.90;;;;;;5055364;28;20104;-78
2023/03/25 08:43:09;;;;;;;1999.90;999.90;;;13.70;99.90;;;;;;5055686;28;20108;-71
2023/03/25 08:45:35;;;;;;;1999.90;999.90;;;13.60;99.90;;;;;;5055496;28;20458;-78
2023/03/25 08:48:02;;;;;;;1999.90;999.90;;;13.80;99.90;;;;;;5055770;28;20128;-78
2023/03/25 08:50:28;;;;;;;1999.90;999.90;;;14.80;99.90;;;;;;5055333;28;20036;-78
2023/03/25 08:52:57;;;;;;;1999.90;999.90;;;15.90;99.90;;;;;;5055452;28;20037;-72
2023/03/25 08:55:23;;;;;;;1999.90;999.90;;;16.20;99.90;;;;;;5055753;28;20017;-72
2023/03/25 08:57:49;;;;;;;1999.90;999.90;;;17.80;99.90;;;;;;5055185;28;20036;-72
2023/03/25 09:00:15;;;;;;;1999.90;999.90;;;18.60;99.90;;;;;;5055677;28;20028;-79
2023/03/25 09:02:42;;;;;;;1999.90;999.90;;;17.60;99.90;;;;;;5055513;28;20512;-79
2023/03/25 09:05:11;;;;;;;1999.90;999.90;;;17.80;99.90;;;;;;5055159;28;20082;-79
2023/03/25 09:07:37;;;;;;;1999.90;999.90;;;17.60;99.90;;;;;;5055456;28;20388;-79
2023/03/25 09:10:06;;;;;;;1999.90;999.90;;;16.00;99.90;;;;;;5049589;28;20022;-71
2023/03/25 09:12:31;;;;;;;1999.90;999.90;;;15.50;99.90;;;;;;5035151;28;20108;-79
2023/03/25 09:14:57;;;;;;;1999.90;999.90;;;16.10;99.90;;;;;;5035262;28;20101;-79
2023/03/25 09:17:23;;;;;;;1999.90;999.90;;;16.10;99.90;;;;;;5061416;28;20017;-78
2023/03/25 09:19:48;;;;;;;1999.90;999.90;;;17.20;99.90;;;;;;5054893;28;20532;-78
2023/03/25 09:22:14;;;;;;;1999.90;999.90;;;18.80;99.90;;;;;;5055122;28;20111;-79
2023/03/25 09:24:40;;;;;;;1999.90;999.90;;;18.60;99.90;;;;;;5054937;28;20024;-79
2023/03/25 09:27:06;;;;;;;1999.90;999.90;;;18.60;99.90;;;;;;5054737;28;20025;-78
2023/03/25 09:29:32;;;;;;;1999.90;999.90;;;17.80;99.90;;;;;;5054795;28;20615;-78
2023/03/25 09:31:59;;;;;;;1999.90;999.90;;;17.30;99.90;;;;;;5053772;28;20029;-73
2023/03/25 09:34:26;;;;;;;1999.90;999.90;;;17.00;99.90;;;;;;5054959;28;20013;-73
2023/03/25 09:36:53;;;;;;;1999.90;999.90;;;17.30;99.90;;;;;;5054721;28;20052;-79
2023/03/25 09:39:18;;;;;;;1999.90;999.90;;;17.10;99.90;;;;;;5054338;28;20021;-80
2023/03/25 09:41:56;;;;;;;1999.90;999.90;;;17.10;99.90;;;;;;5054388;28;20041;-80
2023/03/25 09:44:25;;;;;;;1999.90;999.90;;;17.30;99.90;;;;;;5054383;28;20028;-79
2023/03/25 09:46:51;;;;;;;1999.90;999.90;;;16.30;99.90;;;;;;5053931;28;20021;-79
2023/03/25 09:49:22;;;;;;;1999.90;999.90;;;16.30;99.90;;;;;;5054166;28;20524;-73
2023/03/25 09:51:50;;;;;;;1999.90;999.90;;;16.60;99.90;;;;;;5054354;28;20025;-80
2023/03/25 09:54:28;;;;;;;1999.90;999.90;;;16.40;99.90;;;;;;5054299;28;20033;-79
2023/03/25 09:56:58;;;;;;;1999.90;999.90;;;15.90;99.90;;;;;;5053031;28;20488;-73
2023/03/25 09:59:35;;;;;;;1999.90;999.90;;;15.50;99.90;;;;;;5054388;28;20079;-79
2023/03/25 10:02:03;;;;;;;1999.90;999.90;;;15.60;99.90;;;;;;5054355;28;20025;-72
2023/03/25 10:05:07;;;;;;;1999.90;999.90;;;15.80;99.90;;;;;;5054290;28;20477;-80
2023/03/25 10:07:43;;;;;;;1999.90;999.90;;;16.30;99.90;;;;;;5053973;28;20365;-78
2023/03/25 10:10:09;;;;;;;1999.90;999.90;;;15.90;99.90;;;;;;5053539;28;20025;-78
2023/03/25 10:13:03;;;;;;;1999.90;999.90;;;15.70;99.90;;;;;;5054289;28;20016;-79
2023/03/25 10:15:43;;;;;;;;;;;15.10;99.90;;;;;;5054551;28;20598;-72
2023/03/25 10:18:26;;;;;;;1999.90;999.90;;;15.20;99.90;;;;;;5053199;28;19909;-79
2023/03/25 10:21:08;;;;;;;1999.90;999.90;;;15.30;99.90;;;;;;5053805;28;20017;-80
2023/03/25 10:23:41;;;;;;;1999.90;999.90;;;15.60;99.90;;;;;;5052577;28;20082;-79
2023/03/25 10:26:39;;;;;;;1999.90;999.90;;;15.40;99.90;;;;;;5053770;28;20049;-72
2023/03/25 10:29:12;;;;;;;1999.90;999.90;;;15.50;99.90;;;;;;5053938;28;20040;-80
2023/03/25 10:31:39;;;;;;;;;;;15.30;99.90;;;;;;5053731;28;20029;-79
2023/03/25 10:34:12;;;;;;;1999.90;999.90;;;15.20;99.90;;;;;;5052935;28;20000;-80
2023/03/25 10:36:50;;;;;;;1999.90;999.90;;;14.80;99.90;;;;;;5053459;28;20109;-76
2023/03/25 10:39:19;;;;;;;1999.90;999.90;;;14.80;99.90;;;;;;5053300;28;20045;-72
2023/03/25 10:42:15;;;;;;;1999.90;999.90;;;14.70;99.90;;;;;;5052835;28;20104;-79
2023/03/25 10:44:40;;;;;;;1999.90;999.90;;;14.50;99.90;;;;;;5049986;28;20029;-79
2023/03/25 10:47:14;;;;;;;1999.90;999.90;;;14.70;99.90;;;;;;5053571;28;20033;-72
2023/03/25 10:49:41;;;;;;;1999.90;999.90;;;14.80;99.90;;;;;;5053046;28;20033;-80
2023/03/25 10:52:07;;;;;;;1999.90;999.90;;;14.60;99.90;;;;;;5053030;28;20062;-71
2023/03/25 10:54:38;;;;;;;1999.90;999.90;;;14.50;99.90;;;;;;5053214;28;20024;-72
2023/03/25 10:57:11;;;;;;;1999.90;999.90;;;14.70;99.90;;;;;;5053002;28;20420;-80
2023/03/25 10:59:46;;;;;;;1999.90;999.90;;;14.90;99.90;;;;;;5053188;28;20491;-80
2023/03/25 11:02:21;;;;;;;1999.90;999.90;;;15.10;99.90;;;;;;5051750;28;20032;-79
2023/03/25 11:04:51;;;;;;;1999.90;999.90;;;14.90;99.90;;;;;;5053144;28;20103;-80
2023/03/25 11:07:31;;;;;;;1999.90;999.90;;;14.80;99.90;;;;;;5052951;28;20079;-79
2023/03/25 11:10:31;;;;;;;1999.90;999.90;;;14.60;99.90;;;;;;5052495;28;20025;-80
2023/03/25 11:13:02;;;;;;;1999.90;999.90;;;14.80;99.90;;;;;;5045881;28;20094;-79
2023/03/25 11:15:33;;;;;;;1999.90;999.90;;;15.00;99.90;;;;;;5052925;28;20024;-72
2023/03/25 11:18:18;;;;;;;1999.90;999.90;;;14.80;99.90;;;;;;5053078;28;20021;-72
2023/03/25 11:21:13;;;;;;;1999.90;999.90;;;14.40;99.90;;;;;;5052773;28;20033;-78
2023/03/25 11:23:43;;;;;;;1999.90;999.90;;;14.30;99.90;;;;;;5052905;28;20021;-78
2023/03/25 11:26:17;;;;;;;1999.90;999.90;;;14.20;99.90;;;;;;5052736;28;20060;-80
2023/03/25 11:28:48;;;;;;;1999.90;999.90;;;14.50;99.90;;;;;;5052860;28;20032;-79
2023/03/25 11:31:13;;;;;;;1999.90;999.90;;;14.60;99.90;;;;;;5052234;28;20159;-72
2023/03/25 11:33:40;;;;;;;1999.90;999.90;;;14.40;99.90;;;;;;5052269;28;20092;-71
2023/03/25 11:36:30;;;;;;;1999.90;999.90;;;14.30;99.90;;;;;;5052801;28;20017;-79
2023/03/25 11:39:14;;;;;;;1999.90;999.90;;;14.50;99.90;;;;;;5052693;28;20036;-79
2023/03/25 11:41:40;;;;;;;1999.90;999.90;;;14.50;99.90;;;;;;5052430;28;20021;-78
2023/03/25 11:44:06;;;;;;;1999.90;999.90;;;14.40;99.90;;;;;;5053031;28;20039;-72
2023/03/25 11:46:33;;;;;;;1999.90;999.90;;;14.20;99.90;;;;;;5052355;28;20448;-80
2023/03/25 11:49:15;;;;;;;1999.90;999.90;;;14.20;99.90;;;;;;5052481;28;20052;-79
2023/03/25 11:51:41;;;;;;;1999.90;999.90;;;14.20;99.90;;;;;;5052301;28;20031;-79
2023/03/25 11:54:12;;;;;;;1999.90;999.90;;;14.40;99.90;;;;;;5052688;28;20100;-79
2023/03/25 11:56:41;;;;;;;1999.90;999.90;;;14.50;99.90;;;;;;5052654;28;20460;-72
2023/03/25 11:59:15;;;;;;;1999.90;999.90;;;14.60;99.90;;;;;;5052562;28;20074;-79
2023/03/25 12:01:46;;;;;;;1999.90;999.90;;;14.40;99.90;;;;;;5052493;28;20480;-78
2023/03/25 12:04:23;;;;;;;1999.90;999.90;;;14.20;99.90;;;;;;5052430;28;20045;-80
2023/03/25 12:07:12;;;;;;;1999.90;999.90;;;14.60;99.90;;;;;;5052296;28;20104;-79
2023/03/25 12:09:54;;;;;;;1999.90;999.90;;;14.30;99.90;;;;;;5053171;28;20017;-71
2023/03/25 12:12:53;;;;;;;1999.90;999.90;;;14.30;99.90;;;;;;5036257;28;20039;-72
2023/03/25 12:15:49;;;;;;;1999.90;999.90;;;14.20;99.90;;;;;;5032186;28;20045;-72
2023/03/25 12:18:33;;;;;;;1999.90;999.90;;;14.00;99.90;;;;;;5054606;28;20488;-79